ITY255 EDDF-LFSB
Flight info
| Callsign | ITY255 |
|---|---|
| Flight time | N/A |
| Altitude | 21000 |
| Route | ANEKI2L/18 ANEKI Y163 PABLA T715 RIGVI LFSB/25 |
| Aircraft | A320/M-SDE3FGHIRWY/LB1 |
Departure
| Time | N/A |
|---|---|
| Airport | Frankfurt Main Airport (EDDF) |
Arrival
| Time | 2026-05-05 19:05 |
|---|---|
| Airport | EuroAirport Basel–Mulhouse–Freiburg (LFSB) |
| Time | Latitude | Longitude | Altitude | Speed | Heading |
|---|---|---|---|---|---|
| 2026-05-05 19:02 | 47.66456 | 7.65722 | 1795 ft | 153 kts | 192° |
| 2026-05-05 19:02 | 47.65432 | 7.65325 | 1793 ft | 153 kts | 199° |
| 2026-05-05 19:02 | 47.64439 | 7.64775 | 1792 ft | 153 kts | 202° |
| 2026-05-05 19:02 | 47.63453 | 7.64209 | 1792 ft | 152 kts | 202° |
| 2026-05-05 19:03 | 47.62486 | 7.63582 | 1790 ft | 152 kts | 209° |
| 2026-05-05 19:03 | 47.61637 | 7.62665 | 1792 ft | 152 kts | 224° |
| 2026-05-05 19:03 | 47.61001 | 7.61424 | 1791 ft | 152 kts | 240° |
| 2026-05-05 19:03 | 47.60566 | 7.60008 | 1791 ft | 152 kts | 248° |
| 2026-05-05 19:04 | 47.60151 | 7.58580 | 1789 ft | 151 kts | 244° |
| 2026-05-05 19:04 | 47.59681 | 7.57202 | 1726 ft | 149 kts | 246° |
| 2026-05-05 19:04 | 47.59348 | 7.55765 | 1384 ft | 149 kts | 257° |
| 2026-05-05 19:04 | 47.59201 | 7.54269 | 958 ft | 146 kts | 249° |
| 2026-05-05 19:05 | 47.58988 | 7.52993 | 858 ft | 99 kts | 262° |
| 2026-05-05 19:05 | 47.58895 | 7.52367 | 861 ft | 31 kts | 258° |
| 2026-05-05 19:05 | 47.58860 | 7.52070 | 861 ft | 30 kts | 258° |
| 2026-05-05 19:05 | 47.58821 | 7.51832 | 864 ft | 19 kts | 267° |
| 2026-05-05 19:06 | 47.58886 | 7.51685 | 864 ft | 18 kts | 340° |
| 2026-05-05 19:06 | 47.58996 | 7.51739 | 864 ft | 17 kts | 42° |
| 2026-05-05 19:06 | 47.59083 | 7.51868 | 863 ft | 18 kts | 48° |
| 2026-05-05 19:06 | 47.59171 | 7.52013 | 861 ft | 20 kts | 47° |
| 2026-05-05 19:07 | 47.59259 | 7.52164 | 861 ft | 19 kts | 58° |
| 2026-05-05 19:07 | 47.59325 | 7.52343 | 858 ft | 21 kts | 63° |
| 2026-05-05 19:07 | 47.59372 | 7.52479 | 858 ft | 8 kts | 64° |
| 2026-05-05 19:07 | 47.59396 | 7.52563 | 858 ft | 10 kts | 70° |
| 2026-05-05 19:08 | 47.59423 | 7.52664 | 858 ft | 11 kts | 67° |
| 2026-05-05 19:08 | 47.59457 | 7.52773 | 858 ft | 12 kts | 62° |
| 2026-05-05 19:08 | 47.59531 | 7.52822 | 858 ft | 13 kts | 352° |
| 2026-05-05 19:08 | 47.59617 | 7.52777 | 858 ft | 14 kts | 337° |
| 2026-05-05 19:09 | 47.59706 | 7.52718 | 857 ft | 15 kts | 336° |
| 2026-05-05 19:09 | 47.59807 | 7.52652 | 855 ft | 17 kts | 335° |
| 2026-05-05 19:09 | 47.59910 | 7.52576 | 853 ft | 12 kts | 336° |
| 2026-05-05 19:09 | 47.59938 | 7.52557 | 852 ft | 12 kts | 338° |
| 2026-05-05 19:10 | 47.60008 | 7.52608 | 853 ft | 12 kts | 57° |
| 2026-05-05 19:10 | 47.60045 | 7.52723 | 853 ft | 13 kts | 71° |
| 2026-05-05 19:10 | 47.60051 | 7.52856 | 853 ft | 13 kts | 75° |
| 2026-05-05 19:10 | 47.60054 | 7.52985 | 850 ft | 0 kts | 95° |